<<    Juli 2013    >>
Datum    Temp.       Tempmin      Tempmax    Taup.       Taup.min      Taup.max    Feuchte    Feuchtemin    Feuchtemax    Druck    Druckmin    Druckmax    Regen    Wind    Benmax  
    0,0    0,0        0,0      0,0    0,0        0,0      0,0    0        0      0,0    0        0      0,0  0,0  0,0  
    0,0    0,0        0,0      0,0    0,0        0,0      0,0    0        0      0,0    0        0      0,0  0,0  0,0  
    0,0    0,0        0,0      0,0    0,0        0,0      0,0    0        0      0,0    0        0      0,0  0,0  0,0  
    0,0    0,0        0,0      0,0    0,0        0,0      0,0    0        0      0,0    0        0      0,0  0,0  0,0  
  05.07.2013  19,0    18,0    23:59    20,3    21:51  14,7    14,3    21:53    15,1    23:17  76,5    69    21:51    82    23:59  1027,9    1027    21:51    1028    22:03  0,0  0,0  1,8  
  06.07.2013  21,9    15,2    05:45    28,8    16:40  13,5    10,0    14:11    17,9    08:43  64,1    33    14:11    97    06:53  1027,2    1025    16:17    1029    06:17  0,0  2,3  16,9  
  07.07.2013  22,7    15,3    05:43    29,8    16:53  11,3    4,3    18:35    16,4    08:15  54,0    22    18:15    90    06:42  1027,7    1026    17:32    1029    02:17  0,0  2,6  17,3  
  08.07.2013  23,0    15,1    06:01    29,9    15:32  10,5    7,5    17:16    14,8    08:18  49,1    25    16:54    82    06:34  1028,2    1025    19:46    1031    09:17  0,0  3,3  17,6  
  09.07.2013  23,0    16,3    05:43    29,7    16:21  12,5    8,8    23:42    15,1    08:19  54,6    32    15:41    84    06:59  1023,1    1019    17:31    1026    00:00  0,0  2,8  19,1  
  10.07.2013  19,7    15,7    05:53    24,7    14:02  10,7    7,9    23:44    13,6    10:07  57,1    41    13:27    76    07:42  1020,3    1018    18:31    1022    02:46  0,0  3,8  20,9  
  11.07.2013  16,7    13,5    23:59    19,8    17:58  8,2    5,8    02:36    9,5    07:31  57,9    47    19:37    73    23:47  1021,9    1021    00:00    1023    23:59  0,0  3,4  14,0  
  12.07.2013  16,4    10,5    05:42    22,4    15:41  9,2    6,9    17:26    12,6    10:36  65,3    39    17:19    92    07:15  1022,6    1021    16:03    1023    00:00  0,0  2,3  16,9  
  13.07.2013  18,4    13,5    06:14    23,7    16:22  9,6    7,5    16:32    12,8    08:25  58,8    37    16:32    84    06:54  1022,5    1021    17:48    1023    00:00  0,0  1,9  14,0  
  14.07.2013  18,6    12,2    05:52    24,6    16:08  11,1    9,5    05:52    14,0    08:58  64,0    42    15:10    89    07:17  1023,0    1021    16:20    1025    05:34  0,0  2,3  15,5  
  15.07.2013  21,2    14,6    03:39    28,6    17:06  11,1    7,8    19:33    14,1    10:51  56,9    30    17:01    87    07:00  1021,5    1020    16:48    1023    07:50  0,0  1,5  11,9  
  16.07.2013  22,2    14,6    05:28    29,8    16:33  10,5    5,2    18:25    14,6    10:52  52,5    23    17:58    86    06:44  1021,4    1019    20:03    1023    00:18  0,0  1,5  12,6  
  17.07.2013  22,7    15,0    05:55    29,9    16:31  10,9    7,6    15:17    14,3    08:29  51,1    26    15:10    82    06:41  1021,7    1019    19:03    1023    06:03  0,0  2,4  28,4  
  18.07.2013  24,3    16,8    05:56    31,3    16:24  11,8    7,9    16:18    16,4    08:18  50,0    24    16:18    84    06:59  1021,5    1019    17:33    1023    06:18  0,0  2,8  20,5  
  19.07.2013  23,4    16,6    06:08    29,6    15:35  11,1    8,9    18:08    14,0    08:17  48,7    29    15:38    77    06:53  1021,3    1019    17:02    1023    00:00  0,0  3,8  19,8  
  20.07.2013  21,1    15,9    06:07    25,9    16:38  12,3    11,0    12:33    13,9    08:01  58,9    42    16:41    81    07:01  1020,2    1018    18:02    1022    00:47  0,0  3,2  14,0  
  21.07.2013  24,3    15,5    05:50    32,9    16:23  11,7    6,3    18:49    15,7    07:47  51,3    21    16:41    89    07:24  1018,0    1015    18:02    1020    00:47  0,0  1,6  13,7  
  22.07.2013  27,2    19,2    05:26    35,9    17:12  11,4    6,5    16:16    14,0    11:12  42,1    17    16:16    68    05:39  1014,5    1011    17:47    1017    01:02  0,0  1,6  9,7  
  23.07.2013  25,8    20,9    05:55    34,9    16:10  14,5    8,1    16:24    17,3    11:32  52,3    20    16:14    74    06:20  1011,2    1009    14:49    1013    00:00  0,0  1,5  17,6  
  24.07.2013  22,7    19,6    23:56    28,1    16:10  16,7    14,0    16:13    18,9    14:57  70,3    42    16:13    91    23:59  1012,6    1010    00:05    1014    10:05  0,9  1,5  16,2  
  25.07.2013  21,9    18,2    04:05    29,8    13:07  19,6    15,5    13:19    23,7    17:32  88,5    43    13:14    98    04:18  1013,5    1011    13:05    1015    05:35  29,5  1,5  16,2  
  26.07.2013  23,1    20,1    04:10    27,9    17:22  19,7    17,0    18:35    21,0    11:31  82,9    53    18:35    98    00:58  1011,8    1009    18:19    1014    00:00  0,0  1,1  12,2  
  27.07.2013  25,3    20,5    02:12    32,5    17:05  19,8    15,9    18:46    22,1    08:35  74,8    39    18:05    98    04:43  1006,4    1001    23:21    1010    00:00  0,0  1,6  21,2  
  28.07.2013  22,7    19,1    23:58    24,9    01:26  16,9    15,0    20:43    21,4    00:40  69,9    61    13:19    88    00:35  1008,1    1001    00:00    1012    23:22  0,0  1,2  15,5  
  29.07.2013  21,9    18,2    05:25    26,5    16:15  14,6    8,9    18:31    19,4    12:29  66,5    36    18:31    92    06:44  1012,8    1011    01:39    1016    23:36  0,0  2,1  19,4  
  30.07.2013  19,7    16,7    02:49    26,0    14:25  13,1    9,4    15:02    16,5    23:59  67,4    37    15:02    92    23:59  1016,3    1014    23:59    1019    11:21  1,8  2,4  21,6  
  31.07.2013  21,3    17,8    00:00    26,2    17:23  14,2    10,9    14:17    17,8    01:37  66,5    41    17:38    94    01:02  1015,9    1013    00:20    1019    12:21  0,0  3,3  16,6  
 
  Gesamt  19,0  0,0            35,9            11,3  0,0            23,7            53,3  0            98            887,5  0            1031            32,2  1,9  28,4  
 
  Mittelwert  19,0  14,3            24,3            11,3  8,3            14,1            53,3  31,2            75,1            887,5  885,3            889,2            1,0  1,9  14,2  
  Minimum  0,0  0,0            0,0            0,0  0,0            0,0            0,0  0,0            0,0            0,0  0,0            0,0            0,0  0,0  0,0  
  Maximum  27,2  20,9            35,9            19,8  17,0            23,7            88,5  69,0            98,0            1028,2  1027,0            1031,0            29,5  3,8  28,4  

  Heie Tage    Tmax >=30C     5  
  Sommertage    Tmax >=25C     20  
  Warme Tage    Tmax >=20C     26  
  Kalte Tage    Tmax  <10C     4  
  Frosttage    Tmin  <0C     0  
  Eistage    Tmax  <0C     0  
  Regentage > 0 mm    3  
  Regentage > 2 mm    1  
  Regentage > 10 mm    1  
  Regentage > 20 mm    1